sensor_id;sensor_type;location;lat;lon;timestamp;temperature;humidity
54930;DHT22;40833;53.238;6.576;2022-11-14T00:02:19;6.50;99.90
54930;DHT22;40833;53.238;6.576;2022-11-14T00:04:46;6.80;99.90
54930;DHT22;40833;53.238;6.576;2022-11-14T00:07:12;6.50;99.90
54930;DHT22;40833;53.238;6.576;2022-11-14T00:09:38;6.50;99.90
54930;DHT22;40833;53.238;6.576;2022-11-14T00:12:05;7.00;99.90
54930;DHT22;40833;53.238;6.576;2022-11-14T00:14:31;6.60;99.90
54930;DHT22;40833;53.238;6.576;2022-11-14T00:16:56;6.70;99.90
54930;DHT22;40833;53.238;6.576;2022-11-14T00:19:22;9.60;99.90
54930;DHT22;40833;53.238;6.576;2022-11-14T00:21:47;6.60;99.90
54930;DHT22;40833;53.238;6.576;2022-11-14T00:24:13;6.60;99.90
54930;DHT22;40833;53.238;6.576;2022-11-14T00:26:39;6.60;99.90
54930;DHT22;40833;53.238;6.576;2022-11-14T00:29:05;6.60;99.90
54930;DHT22;40833;53.238;6.576;2022-11-14T00:31:30;7.50;99.90
54930;DHT22;40833;53.238;6.576;2022-11-14T00:33:56;6.60;99.90
54930;DHT22;40833;53.238;6.576;2022-11-14T00:36:22;6.70;99.90
54930;DHT22;40833;53.238;6.576;2022-11-14T00:38:51;6.70;99.90
54930;DHT22;40833;53.238;6.576;2022-11-14T00:41:17;6.70;99.90
54930;DHT22;40833;53.238;6.576;2022-11-14T00:43:43;6.70;99.90
54930;DHT22;40833;53.238;6.576;2022-11-14T00:46:09;6.70;99.90
54930;DHT22;40833;53.238;6.576;2022-11-14T00:48:34;6.70;99.90
54930;DHT22;40833;53.238;6.576;2022-11-14T00:51:00;6.70;99.90
54930;DHT22;40833;53.238;6.576;2022-11-14T00:53:25;7.50;99.90
54930;DHT22;40833;53.238;6.576;2022-11-14T00:55:51;6.70;99.90
54930;DHT22;40833;53.238;6.576;2022-11-14T00:58:17;6.70;99.90
54930;DHT22;40833;53.238;6.576;2022-11-14T01:00:42;6.70;99.90
54930;DHT22;40833;53.238;6.576;2022-11-14T01:03:08;6.80;99.90
54930;DHT22;40833;53.238;6.576;2022-11-14T01:05:40;7.00;99.90
54930;DHT22;40833;53.238;6.576;2022-11-14T01:08:05;6.80;99.90
54930;DHT22;40833;53.238;6.576;2022-11-14T01:10:31;6.80;99.90
54930;DHT22;40833;53.238;6.576;2022-11-14T01:12:57;8.10;99.90
54930;DHT22;40833;53.238;6.576;2022-11-14T01:15:22;6.80;99.90
54930;DHT22;40833;53.238;6.576;2022-11-14T01:17:48;9.20;99.90
54930;DHT22;40833;53.238;6.576;2022-11-14T01:20:15;6.70;99.90
54930;DHT22;40833;53.238;6.576;2022-11-14T01:22:40;6.70;99.90
54930;DHT22;40833;53.238;6.576;2022-11-14T01:25:06;6.90;99.90
54930;DHT22;40833;53.238;6.576;2022-11-14T01:27:32;6.70;99.90
54930;DHT22;40833;53.238;6.576;2022-11-14T01:29:58;6.70;99.90
54930;DHT22;40833;53.238;6.576;2022-11-14T01:32:25;6.70;99.90
54930;DHT22;40833;53.238;6.576;2022-11-14T01:34:50;6.70;99.90
54930;DHT22;40833;53.238;6.576;2022-11-14T01:37:16;6.60;99.90
54930;DHT22;40833;53.238;6.576;2022-11-14T01:39:42;7.20;99.90
54930;DHT22;40833;53.238;6.576;2022-11-14T01:42:07;6.60;99.90
54930;DHT22;40833;53.238;6.576;2022-11-14T01:44:51;6.90;99.90
54930;DHT22;40833;53.238;6.576;2022-11-14T01:47:19;6.70;99.90
54930;DHT22;40833;53.238;6.576;2022-11-14T01:49:49;6.60;99.90
54930;DHT22;40833;53.238;6.576;2022-11-14T01:52:29;6.60;99.90
54930;DHT22;40833;53.238;6.576;2022-11-14T01:54:58;6.60;99.90
54930;DHT22;40833;53.238;6.576;2022-11-14T01:57:31;7.60;99.90
54930;DHT22;40833;53.238;6.576;2022-11-14T02:00:02;6.50;99.90
54930;DHT22;40833;53.238;6.576;2022-11-14T02:02:28;6.50;99.90
54930;DHT22;40833;53.238;6.576;2022-11-14T02:04:59;7.20;99.90
54930;DHT22;40833;53.238;6.576;2022-11-14T02:07:27;6.50;99.90
54930;DHT22;40833;53.238;6.576;2022-11-14T02:09:54;6.40;99.90
54930;DHT22;40833;53.238;6.576;2022-11-14T02:12:20;7.80;99.90
54930;DHT22;40833;53.238;6.576;2022-11-14T02:14:50;7.10;99.90
54930;DHT22;40833;53.238;6.576;2022-11-14T02:17:17;6.90;99.90
54930;DHT22;40833;53.238;6.576;2022-11-14T02:19:51;6.50;99.90
54930;DHT22;40833;53.238;6.576;2022-11-14T02:22:17;7.80;99.90
54930;DHT22;40833;53.238;6.576;2022-11-14T02:24:44;8.60;99.90
54930;DHT22;40833;53.238;6.576;2022-11-14T02:27:11;6.50;99.90
54930;DHT22;40833;53.238;6.576;2022-11-14T02:29:37;6.90;99.90
54930;DHT22;40833;53.238;6.576;2022-11-14T02:32:03;6.40;99.90
54930;DHT22;40833;53.238;6.576;2022-11-14T02:34:29;6.40;99.90
54930;DHT22;40833;53.238;6.576;2022-11-14T02:36:55;6.40;99.90
54930;DHT22;40833;53.238;6.576;2022-11-14T02:39:20;6.50;99.90
54930;DHT22;40833;53.238;6.576;2022-11-14T02:41:46;7.30;99.90
54930;DHT22;40833;53.238;6.576;2022-11-14T02:44:12;7.30;99.90
54930;DHT22;40833;53.238;6.576;2022-11-14T02:46:38;8.90;99.90
54930;DHT22;40833;53.238;6.576;2022-11-14T02:49:03;6.40;99.90
54930;DHT22;40833;53.238;6.576;2022-11-14T02:51:29;6.80;99.90
54930;DHT22;40833;53.238;6.576;2022-11-14T02:53:54;6.40;99.90
54930;DHT22;40833;53.238;6.576;2022-11-14T02:56:20;6.40;99.90
54930;DHT22;40833;53.238;6.576;2022-11-14T02:58:46;7.80;99.90
54930;DHT22;40833;53.238;6.576;2022-11-14T03:01:12;6.40;99.90
54930;DHT22;40833;53.238;6.576;2022-11-14T03:03:37;6.50;99.90
54930;DHT22;40833;53.238;6.576;2022-11-14T03:06:03;8.70;99.90
54930;DHT22;40833;53.238;6.576;2022-11-14T03:08:29;6.50;99.90
54930;DHT22;40833;53.238;6.576;2022-11-14T03:10:55;6.60;99.90
54930;DHT22;40833;53.238;6.576;2022-11-14T03:13:21;8.90;99.90
54930;DHT22;40833;53.238;6.576;2022-11-14T03:15:47;9.30;99.90
54930;DHT22;40833;53.238;6.576;2022-11-14T03:18:12;6.60;99.90
54930;DHT22;40833;53.238;6.576;2022-11-14T03:20:38;6.60;99.90
54930;DHT22;40833;53.238;6.576;2022-11-14T03:23:04;6.70;99.90
54930;DHT22;40833;53.238;6.576;2022-11-14T03:25:30;6.60;99.90
54930;DHT22;40833;53.238;6.576;2022-11-14T03:27:55;6.70;99.90
54930;DHT22;40833;53.238;6.576;2022-11-14T03:30:21;6.90;99.90
54930;DHT22;40833;53.238;6.576;2022-11-14T03:32:46;6.80;99.90
54930;DHT22;40833;53.238;6.576;2022-11-14T03:35:12;7.60;99.90
54930;DHT22;40833;53.238;6.576;2022-11-14T03:37:38;7.20;99.90
54930;DHT22;40833;53.238;6.576;2022-11-14T03:40:04;6.70;99.90
54930;DHT22;40833;53.238;6.576;2022-11-14T03:42:34;6.70;99.90
54930;DHT22;40833;53.238;6.576;2022-11-14T03:45:00;6.70;99.90
54930;DHT22;40833;53.238;6.576;2022-11-14T03:47:26;7.60;99.90
54930;DHT22;40833;53.238;6.576;2022-11-14T03:49:51;6.70;99.90
54930;DHT22;40833;53.238;6.576;2022-11-14T03:52:17;6.70;99.90
54930;DHT22;40833;53.238;6.576;2022-11-14T03:54:43;8.70;99.90
54930;DHT22;40833;53.238;6.576;2022-11-14T03:57:08;8.80;99.90
54930;DHT22;40833;53.238;6.576;2022-11-14T03:59:34;7.80;99.90
54930;DHT22;40833;53.238;6.576;2022-11-14T04:02:00;6.80;99.90
54930;DHT22;40833;53.238;6.576;2022-11-14T04:04:25;6.70;99.90
54930;DHT22;40833;53.238;6.576;2022-11-14T04:06:51;6.80;99.90
54930;DHT22;40833;53.238;6.576;2022-11-14T04:09:16;6.80;99.90
54930;DHT22;40833;53.238;6.576;2022-11-14T04:11:42;6.80;99.90
54930;DHT22;40833;53.238;6.576;2022-11-14T04:14:08;6.90;99.90
54930;DHT22;40833;53.238;6.576;2022-11-14T04:16:34;6.70;99.90
54930;DHT22;40833;53.238;6.576;2022-11-14T04:18:59;6.70;99.90
54930;DHT22;40833;53.238;6.576;2022-11-14T04:21:25;7.90;99.90
54930;DHT22;40833;53.238;6.576;2022-11-14T04:23:51;6.80;99.90
54930;DHT22;40833;53.238;6.576;2022-11-14T04:26:16;6.70;99.90
54930;DHT22;40833;53.238;6.576;2022-11-14T04:28:42;8.20;99.90
54930;DHT22;40833;53.238;6.576;2022-11-14T04:31:08;6.70;99.90
54930;DHT22;40833;53.238;6.576;2022-11-14T04:33:33;7.50;99.90
54930;DHT22;40833;53.238;6.576;2022-11-14T04:35:59;6.70;99.90
54930;DHT22;40833;53.238;6.576;2022-11-14T04:38:25;6.70;99.90
54930;DHT22;40833;53.238;6.576;2022-11-14T04:40:51;6.70;99.90
54930;DHT22;40833;53.238;6.576;2022-11-14T04:43:18;6.70;99.90
54930;DHT22;40833;53.238;6.576;2022-11-14T04:45:44;6.70;99.90
54930;DHT22;40833;53.238;6.576;2022-11-14T04:48:10;6.70;99.90
54930;DHT22;40833;53.238;6.576;2022-11-14T04:50:36;6.90;99.90
54930;DHT22;40833;53.238;6.576;2022-11-14T04:53:02;8.10;99.90
54930;DHT22;40833;53.238;6.576;2022-11-14T04:55:28;6.60;99.90
54930;DHT22;40833;53.238;6.576;2022-11-14T04:57:54;6.60;99.90
54930;DHT22;40833;53.238;6.576;2022-11-14T05:00:21;7.60;99.90
54930;DHT22;40833;53.238;6.576;2022-11-14T05:02:47;6.70;99.90
54930;DHT22;40833;53.238;6.576;2022-11-14T05:05:12;6.70;99.90
54930;DHT22;40833;53.238;6.576;2022-11-14T05:07:38;6.70;99.90
54930;DHT22;40833;53.238;6.576;2022-11-14T05:10:04;6.70;99.90
54930;DHT22;40833;53.238;6.576;2022-11-14T05:12:30;6.70;99.90
54930;DHT22;40833;53.238;6.576;2022-11-14T05:14:55;6.60;99.90
54930;DHT22;40833;53.238;6.576;2022-11-14T05:17:21;9.00;99.90
54930;DHT22;40833;53.238;6.576;2022-11-14T05:19:47;6.60;99.90
54930;DHT22;40833;53.238;6.576;2022-11-14T05:22:12;6.60;99.90
54930;DHT22;40833;53.238;6.576;2022-11-14T05:24:38;6.70;99.90
54930;DHT22;40833;53.238;6.576;2022-11-14T05:27:04;6.60;99.90
54930;DHT22;40833;53.238;6.576;2022-11-14T05:29:30;6.60;99.90
54930;DHT22;40833;53.238;6.576;2022-11-14T05:31:55;6.60;99.90
54930;DHT22;40833;53.238;6.576;2022-11-14T05:34:22;6.40;99.90
54930;DHT22;40833;53.238;6.576;2022-11-14T05:36:48;6.50;99.90
54930;DHT22;40833;53.238;6.576;2022-11-14T05:39:14;6.70;99.90
54930;DHT22;40833;53.238;6.576;2022-11-14T05:41:40;6.50;99.90
54930;DHT22;40833;53.238;6.576;2022-11-14T05:44:06;8.00;99.90
54930;DHT22;40833;53.238;6.576;2022-11-14T05:46:31;6.80;99.90
54930;DHT22;40833;53.238;6.576;2022-11-14T05:48:57;7.50;99.90
54930;DHT22;40833;53.238;6.576;2022-11-14T05:51:23;6.50;99.90
54930;DHT22;40833;53.238;6.576;2022-11-14T05:53:48;6.40;99.90
54930;DHT22;40833;53.238;6.576;2022-11-14T05:56:14;6.40;99.90
54930;DHT22;40833;53.238;6.576;2022-11-14T05:58:40;7.50;99.90
54930;DHT22;40833;53.238;6.576;2022-11-14T06:01:14;6.50;99.90
54930;DHT22;40833;53.238;6.576;2022-11-14T06:03:42;6.40;99.90
54930;DHT22;40833;53.238;6.576;2022-11-14T06:06:10;6.40;99.90
54930;DHT22;40833;53.238;6.576;2022-11-14T06:08:36;6.40;99.90
54930;DHT22;40833;53.238;6.576;2022-11-14T06:11:08;6.40;99.90
54930;DHT22;40833;53.238;6.576;2022-11-14T06:13:34;6.40;99.90
54930;DHT22;40833;53.238;6.576;2022-11-14T06:16:08;6.40;99.90
54930;DHT22;40833;53.238;6.576;2022-11-14T06:18:35;6.40;99.90
54930;DHT22;40833;53.238;6.576;2022-11-14T06:21:12;6.30;99.90
54930;DHT22;40833;53.238;6.576;2022-11-14T06:23:38;6.30;99.90
54930;DHT22;40833;53.238;6.576;2022-11-14T06:26:06;6.60;99.90
54930;DHT22;40833;53.238;6.576;2022-11-14T06:28:32;7.00;99.90
54930;DHT22;40833;53.238;6.576;2022-11-14T06:30:59;6.40;99.90
54930;DHT22;40833;53.238;6.576;2022-11-14T06:33:27;7.20;99.90
54930;DHT22;40833;53.238;6.576;2022-11-14T06:36:01;7.40;99.90
54930;DHT22;40833;53.238;6.576;2022-11-14T06:38:30;6.20;99.90
54930;DHT22;40833;53.238;6.576;2022-11-14T06:43:40;6.30;99.90
54930;DHT22;40833;53.238;6.576;2022-11-14T06:46:08;6.20;99.90
54930;DHT22;40833;53.238;6.576;2022-11-14T06:48:34;6.20;99.90
54930;DHT22;40833;53.238;6.576;2022-11-14T06:51:01;6.20;99.90
54930;DHT22;40833;53.238;6.576;2022-11-14T06:53:28;6.80;99.90
54930;DHT22;40833;53.238;6.576;2022-11-14T06:55:59;7.60;99.90
54930;DHT22;40833;53.238;6.576;2022-11-14T06:58:27;6.20;99.90
54930;DHT22;40833;53.238;6.576;2022-11-14T07:00:53;6.40;99.90
54930;DHT22;40833;53.238;6.576;2022-11-14T07:03:19;6.30;99.90
54930;DHT22;40833;53.238;6.576;2022-11-14T07:05:45;6.10;99.90
54930;DHT22;40833;53.238;6.576;2022-11-14T07:08:10;6.20;99.90
54930;DHT22;40833;53.238;6.576;2022-11-14T07:10:36;8.60;99.90
54930;DHT22;40833;53.238;6.576;2022-11-14T07:13:02;6.10;99.90
54930;DHT22;40833;53.238;6.576;2022-11-14T07:15:27;6.10;99.90
54930;DHT22;40833;53.238;6.576;2022-11-14T07:17:53;7.20;99.90
54930;DHT22;40833;53.238;6.576;2022-11-14T07:20:19;5.80;99.90
54930;DHT22;40833;53.238;6.576;2022-11-14T07:22:45;6.00;99.90
54930;DHT22;40833;53.238;6.576;2022-11-14T07:25:11;8.90;99.90
54930;DHT22;40833;53.238;6.576;2022-11-14T07:27:37;6.10;99.90
54930;DHT22;40833;53.238;6.576;2022-11-14T07:30:03;6.10;99.90
54930;DHT22;40833;53.238;6.576;2022-11-14T07:32:29;6.10;99.90
54930;DHT22;40833;53.238;6.576;2022-11-14T07:34:54;7.30;99.90
54930;DHT22;40833;53.238;6.576;2022-11-14T07:37:20;6.20;99.90
54930;DHT22;40833;53.238;6.576;2022-11-14T07:39:46;6.10;99.90
54930;DHT22;40833;53.238;6.576;2022-11-14T07:42:11;6.10;99.90
54930;DHT22;40833;53.238;6.576;2022-11-14T07:44:37;6.60;99.90
54930;DHT22;40833;53.238;6.576;2022-11-14T07:47:03;6.10;99.90
54930;DHT22;40833;53.238;6.576;2022-11-14T07:49:28;6.10;99.90
54930;DHT22;40833;53.238;6.576;2022-11-14T07:51:54;6.70;99.90
54930;DHT22;40833;53.238;6.576;2022-11-14T07:54:19;7.70;99.90
54930;DHT22;40833;53.238;6.576;2022-11-14T07:56:45;6.10;99.90
54930;DHT22;40833;53.238;6.576;2022-11-14T07:59:11;6.10;99.90
54930;DHT22;40833;53.238;6.576;2022-11-14T08:01:36;6.10;99.90
54930;DHT22;40833;53.238;6.576;2022-11-14T08:04:02;6.10;99.90
54930;DHT22;40833;53.238;6.576;2022-11-14T08:06:28;6.10;99.90
54930;DHT22;40833;53.238;6.576;2022-11-14T08:08:53;6.10;99.90
54930;DHT22;40833;53.238;6.576;2022-11-14T08:11:19;6.10;99.90
54930;DHT22;40833;53.238;6.576;2022-11-14T08:14:05;6.10;99.90
54930;DHT22;40833;53.238;6.576;2022-11-14T08:16:31;6.10;99.90
54930;DHT22;40833;53.238;6.576;2022-11-14T08:18:56;6.50;99.90
54930;DHT22;40833;53.238;6.576;2022-11-14T08:21:22;6.20;99.90
54930;DHT22;40833;53.238;6.576;2022-11-14T08:23:48;6.20;99.90
54930;DHT22;40833;53.238;6.576;2022-11-14T08:26:13;6.20;99.90
54930;DHT22;40833;53.238;6.576;2022-11-14T08:28:39;7.10;99.90
54930;DHT22;40833;53.238;6.576;2022-11-14T08:31:05;7.60;99.90
54930;DHT22;40833;53.238;6.576;2022-11-14T08:33:31;6.30;99.90
54930;DHT22;40833;53.238;6.576;2022-11-14T08:36:01;6.30;99.90
54930;DHT22;40833;53.238;6.576;2022-11-14T08:38:27;8.30;99.90
54930;DHT22;40833;53.238;6.576;2022-11-14T08:40:56;6.40;99.90
54930;DHT22;40833;53.238;6.576;2022-11-14T08:43:22;7.60;99.90
54930;DHT22;40833;53.238;6.576;2022-11-14T08:45:48;6.40;99.90
54930;DHT22;40833;53.238;6.576;2022-11-14T08:48:14;6.40;99.90
54930;DHT22;40833;53.238;6.576;2022-11-14T08:50:39;6.40;99.90
54930;DHT22;40833;53.238;6.576;2022-11-14T08:53:05;6.40;99.90
54930;DHT22;40833;53.238;6.576;2022-11-14T08:55:31;6.50;99.90
54930;DHT22;40833;53.238;6.576;2022-11-14T08:57:56;6.60;99.90
54930;DHT22;40833;53.238;6.576;2022-11-14T09:00:22;6.60;99.90
54930;DHT22;40833;53.238;6.576;2022-11-14T09:02:48;6.60;99.90
54930;DHT22;40833;53.238;6.576;2022-11-14T09:05:14;6.60;99.90
54930;DHT22;40833;53.238;6.576;2022-11-14T09:07:39;6.70;99.90
54930;DHT22;40833;53.238;6.576;2022-11-14T09:10:05;6.70;99.90
54930;DHT22;40833;53.238;6.576;2022-11-14T09:12:31;6.70;99.90
54930;DHT22;40833;53.238;6.576;2022-11-14T09:14:57;7.70;99.90
54930;DHT22;40833;53.238;6.576;2022-11-14T09:17:23;7.80;99.90
54930;DHT22;40833;53.238;6.576;2022-11-14T09:19:49;6.80;99.90
54930;DHT22;40833;53.238;6.576;2022-11-14T09:22:14;6.80;99.90
54930;DHT22;40833;53.238;6.576;2022-11-14T09:24:40;7.60;99.90
54930;DHT22;40833;53.238;6.576;2022-11-14T09:27:06;9.00;99.90
54930;DHT22;40833;53.238;6.576;2022-11-14T09:29:32;6.80;99.90
54930;DHT22;40833;53.238;6.576;2022-11-14T09:31:58;6.90;99.90
54930;DHT22;40833;53.238;6.576;2022-11-14T09:34:23;6.90;99.90
54930;DHT22;40833;53.238;6.576;2022-11-14T09:36:49;8.40;99.90
54930;DHT22;40833;53.238;6.576;2022-11-14T09:39:15;7.00;99.90
54930;DHT22;40833;53.238;6.576;2022-11-14T09:44:48;6.90;99.90
54930;DHT22;40833;53.238;6.576;2022-11-14T09:47:26;9.30;99.90
54930;DHT22;40833;53.238;6.576;2022-11-14T09:50:01;6.80;99.90
54930;DHT22;40833;53.238;6.576;2022-11-14T09:52:35;7.60;99.90
54930;DHT22;40833;53.238;6.576;2022-11-14T09:55:17;7.40;99.90
54930;DHT22;40833;53.238;6.576;2022-11-14T09:57:43;6.80;99.90
54930;DHT22;40833;53.238;6.576;2022-11-14T10:00:20;6.80;99.90
54930;DHT22;40833;53.238;6.576;2022-11-14T10:03:13;6.70;99.90
54930;DHT22;40833;53.238;6.576;2022-11-14T10:11:39;6.70;99.90
54930;DHT22;40833;53.238;6.576;2022-11-14T10:17:26;6.80;99.90
54930;DHT22;40833;53.238;6.576;2022-11-14T10:25:55;6.90;99.90
54930;DHT22;40833;53.238;6.576;2022-11-14T10:28:38;7.00;99.90
54930;DHT22;40833;53.238;6.576;2022-11-14T10:32:13;7.10;99.90
54930;DHT22;40833;53.238;6.576;2022-11-14T10:37:00;7.00;99.90
54930;DHT22;40833;53.238;6.576;2022-11-14T10:39:40;7.00;99.90
54930;DHT22;40833;53.238;6.576;2022-11-14T10:42:16;7.00;99.90
54930;DHT22;40833;53.238;6.576;2022-11-14T10:44:53;7.00;99.90
54930;DHT22;40833;53.238;6.576;2022-11-14T10:47:23;7.00;99.90
54930;DHT22;40833;53.238;6.576;2022-11-14T10:49:53;7.10;99.90
54930;DHT22;40833;53.238;6.576;2022-11-14T10:52:23;7.20;99.90
54930;DHT22;40833;53.238;6.576;2022-11-14T10:54:59;8.30;99.90
54930;DHT22;40833;53.238;6.576;2022-11-14T10:57:27;6.20;99.90
54930;DHT22;40833;53.238;6.576;2022-11-14T10:59:54;7.30;99.90
54930;DHT22;40833;53.238;6.576;2022-11-14T11:02:20;7.40;99.90
54930;DHT22;40833;53.238;6.576;2022-11-14T11:04:45;9.10;99.90
54930;DHT22;40833;53.238;6.576;2022-11-14T11:09:59;8.00;99.90
54930;DHT22;40833;53.238;6.576;2022-11-14T11:12:46;9.60;99.90
54930;DHT22;40833;53.238;6.576;2022-11-14T11:15:19;7.60;99.90
54930;DHT22;40833;53.238;6.576;2022-11-14T11:18:02;7.70;99.90
54930;DHT22;40833;53.238;6.576;2022-11-14T11:20:39;7.70;99.90
54930;DHT22;40833;53.238;6.576;2022-11-14T11:25:34;8.90;99.90
54930;DHT22;40833;53.238;6.576;2022-11-14T11:28:18;7.90;99.90
54930;DHT22;40833;53.238;6.576;2022-11-14T11:31:07;7.90;99.90
54930;DHT22;40833;53.238;6.576;2022-11-14T11:33:37;7.80;99.90
54930;DHT22;40833;53.238;6.576;2022-11-14T11:36:12;7.80;99.90
54930;DHT22;40833;53.238;6.576;2022-11-14T11:38:39;7.80;99.90
54930;DHT22;40833;53.238;6.576;2022-11-14T11:41:20;7.70;99.90
54930;DHT22;40833;53.238;6.576;2022-11-14T11:43:53;7.60;99.90
54930;DHT22;40833;53.238;6.576;2022-11-14T11:57:44;7.90;99.90
54930;DHT22;40833;53.238;6.576;2022-11-14T12:00:16;8.00;99.90
54930;DHT22;40833;53.238;6.576;2022-11-14T12:02:45;8.10;99.90
54930;DHT22;40833;53.238;6.576;2022-11-14T12:06:06;8.20;99.90
54930;DHT22;40833;53.238;6.576;2022-11-14T12:08:04;8.60;99.90
54930;DHT22;40833;53.238;6.576;2022-11-14T12:10:38;8.50;99.90
54930;DHT22;40833;53.238;6.576;2022-11-14T12:15:54;8.70;99.90
54930;DHT22;40833;53.238;6.576;2022-11-14T12:21:35;8.80;99.90
54930;DHT22;40833;53.238;6.576;2022-11-14T12:24:27;8.80;99.90
54930;DHT22;40833;53.238;6.576;2022-11-14T12:30:07;8.70;99.90
54930;DHT22;40833;53.238;6.576;2022-11-14T12:32:55;8.60;99.90
54930;DHT22;40833;53.238;6.576;2022-11-14T12:35:34;8.60;99.90
54930;DHT22;40833;53.238;6.576;2022-11-14T12:38:11;8.60;99.90
54930;DHT22;40833;53.238;6.576;2022-11-14T12:40:40;8.50;99.90
54930;DHT22;40833;53.238;6.576;2022-11-14T12:43:40;9.00;99.90
54930;DHT22;40833;53.238;6.576;2022-11-14T12:46:10;9.60;99.90
54930;DHT22;40833;53.238;6.576;2022-11-14T12:48:44;8.60;99.90
54930;DHT22;40833;53.238;6.576;2022-11-14T12:53:55;8.70;99.90
54930;DHT22;40833;53.238;6.576;2022-11-14T12:59:24;8.80;99.90
54930;DHT22;40833;53.238;6.576;2022-11-14T13:01:56;8.70;99.90
54930;DHT22;40833;53.238;6.576;2022-11-14T13:04:35;8.70;99.90
54930;DHT22;40833;53.238;6.576;2022-11-14T13:10:28;8.80;99.90
54930;DHT22;40833;53.238;6.576;2022-11-14T13:15:55;8.80;99.90
54930;DHT22;40833;53.238;6.576;2022-11-14T13:24:24;8.90;99.90
54930;DHT22;40833;53.238;6.576;2022-11-14T13:26:52;8.90;99.90
54930;DHT22;40833;53.238;6.576;2022-11-14T13:32:11;8.90;99.90
54930;DHT22;40833;53.238;6.576;2022-11-14T13:34:59;8.90;99.90
54930;DHT22;40833;53.238;6.576;2022-11-14T13:48:27;9.80;99.90
54930;DHT22;40833;53.238;6.576;2022-11-14T13:50:58;10.10;99.90
54930;DHT22;40833;53.238;6.576;2022-11-14T13:53:26;10.10;99.90
54930;DHT22;40833;53.238;6.576;2022-11-14T14:04:03;9.80;99.90
54930;DHT22;40833;53.238;6.576;2022-11-14T14:06:56;9.80;99.90
54930;DHT22;40833;53.238;6.576;2022-11-14T14:14:47;10.10;99.90
54930;DHT22;40833;53.238;6.576;2022-11-14T14:17:21;10.20;99.90
54930;DHT22;40833;53.238;6.576;2022-11-14T14:20:04;10.30;99.90
54930;DHT22;40833;53.238;6.576;2022-11-14T14:31:16;10.40;99.90
54930;DHT22;40833;53.238;6.576;2022-11-14T14:33:46;10.40;99.90
54930;DHT22;40833;53.238;6.576;2022-11-14T14:36:27;10.40;99.90
54930;DHT22;40833;53.238;6.576;2022-11-14T14:39:15;10.30;99.90
54930;DHT22;40833;53.238;6.576;2022-11-14T14:41:41;10.30;99.90
54930;DHT22;40833;53.238;6.576;2022-11-14T14:44:26;10.20;99.90
54930;DHT22;40833;53.238;6.576;2022-11-14T14:46:53;10.10;99.90
54930;DHT22;40833;53.238;6.576;2022-11-14T14:49:25;9.90;99.90
54930;DHT22;40833;53.238;6.576;2022-11-14T14:51:51;9.60;99.90
54930;DHT22;40833;53.238;6.576;2022-11-14T14:54:27;9.70;99.90
54930;DHT22;40833;53.238;6.576;2022-11-14T14:56:59;11.00;99.90
54930;DHT22;40833;53.238;6.576;2022-11-14T14:59:27;9.00;99.90
54930;DHT22;40833;53.238;6.576;2022-11-14T15:01:53;8.80;99.90
54930;DHT22;40833;53.238;6.576;2022-11-14T15:04:23;8.70;99.90
54930;DHT22;40833;53.238;6.576;2022-11-14T15:06:51;8.90;99.90
54930;DHT22;40833;53.238;6.576;2022-11-14T15:09:18;9.20;99.90
54930;DHT22;40833;53.238;6.576;2022-11-14T15:11:48;8.30;99.90
54930;DHT22;40833;53.238;6.576;2022-11-14T15:14:30;8.20;99.90
54930;DHT22;40833;53.238;6.576;2022-11-14T15:16:57;8.00;99.90
54930;DHT22;40833;53.238;6.576;2022-11-14T15:19:29;8.30;99.90
54930;DHT22;40833;53.238;6.576;2022-11-14T15:24:40;7.80;99.90
54930;DHT22;40833;53.238;6.576;2022-11-14T15:27:13;7.60;99.90
54930;DHT22;40833;53.238;6.576;2022-11-14T15:29:54;9.00;99.90
54930;DHT22;40833;53.238;6.576;2022-11-14T15:32:23;8.50;99.90
54930;DHT22;40833;53.238;6.576;2022-11-14T15:38:05;7.30;99.90
54930;DHT22;40833;53.238;6.576;2022-11-14T15:40:33;7.30;99.90
54930;DHT22;40833;53.238;6.576;2022-11-14T15:42:59;7.20;99.90
54930;DHT22;40833;53.238;6.576;2022-11-14T15:45:38;10.00;99.90
54930;DHT22;40833;53.238;6.576;2022-11-14T15:48:13;7.40;99.90
54930;DHT22;40833;53.238;6.576;2022-11-14T15:50:40;7.10;99.90
54930;DHT22;40833;53.238;6.576;2022-11-14T15:53:22;7.10;99.90
54930;DHT22;40833;53.238;6.576;2022-11-14T15:55:48;7.10;99.90
54930;DHT22;40833;53.238;6.576;2022-11-14T15:58:14;7.10;99.90
54930;DHT22;40833;53.238;6.576;2022-11-14T16:00:47;7.80;99.90
54930;DHT22;40833;53.238;6.576;2022-11-14T16:03:17;7.20;99.90
54930;DHT22;40833;53.238;6.576;2022-11-14T16:05:43;7.20;99.90
54930;DHT22;40833;53.238;6.576;2022-11-14T16:08:10;7.30;99.90
54930;DHT22;40833;53.238;6.576;2022-11-14T16:10:36;7.30;99.90
54930;DHT22;40833;53.238;6.576;2022-11-14T16:13:02;7.40;99.90
54930;DHT22;40833;53.238;6.576;2022-11-14T16:15:28;7.50;99.90
54930;DHT22;40833;53.238;6.576;2022-11-14T16:17:54;10.00;99.90
54930;DHT22;40833;53.238;6.576;2022-11-14T16:20:22;7.70;99.90
54930;DHT22;40833;53.238;6.576;2022-11-14T16:22:49;7.50;99.90
54930;DHT22;40833;53.238;6.576;2022-11-14T16:25:27;7.50;99.90
54930;DHT22;40833;53.238;6.576;2022-11-14T16:27:53;7.50;99.90
54930;DHT22;40833;53.238;6.576;2022-11-14T16:30:20;9.70;99.90
54930;DHT22;40833;53.238;6.576;2022-11-14T16:32:47;7.90;99.90
54930;DHT22;40833;53.238;6.576;2022-11-14T16:35:19;7.60;99.90
54930;DHT22;40833;53.238;6.576;2022-11-14T16:37:45;7.60;99.90
54930;DHT22;40833;53.238;6.576;2022-11-14T16:40:14;7.60;99.90
54930;DHT22;40833;53.238;6.576;2022-11-14T16:42:40;7.90;99.90
54930;DHT22;40833;53.238;6.576;2022-11-14T16:45:06;7.70;99.90
54930;DHT22;40833;53.238;6.576;2022-11-14T16:47:32;7.70;99.90
54930;DHT22;40833;53.238;6.576;2022-11-14T16:49:58;7.80;99.90
54930;DHT22;40833;53.238;6.576;2022-11-14T16:52:24;7.70;99.90
54930;DHT22;40833;53.238;6.576;2022-11-14T16:54:50;7.70;99.90
54930;DHT22;40833;53.238;6.576;2022-11-14T16:57:15;7.80;99.90
54930;DHT22;40833;53.238;6.576;2022-11-14T16:59:41;7.70;99.90
54930;DHT22;40833;53.238;6.576;2022-11-14T17:02:12;7.80;99.90
54930;DHT22;40833;53.238;6.576;2022-11-14T17:04:40;7.70;99.90
54930;DHT22;40833;53.238;6.576;2022-11-14T17:07:07;8.90;99.90
54930;DHT22;40833;53.238;6.576;2022-11-14T17:09:33;7.70;99.90
54930;DHT22;40833;53.238;6.576;2022-11-14T17:11:58;7.70;99.90
54930;DHT22;40833;53.238;6.576;2022-11-14T17:14:24;8.00;99.90
54930;DHT22;40833;53.238;6.576;2022-11-14T17:16:50;7.70;99.90
54930;DHT22;40833;53.238;6.576;2022-11-14T17:19:15;7.70;99.90
54930;DHT22;40833;53.238;6.576;2022-11-14T17:21:42;8.10;99.90
54930;DHT22;40833;53.238;6.576;2022-11-14T17:24:08;7.70;99.90
54930;DHT22;40833;53.238;6.576;2022-11-14T17:26:34;7.70;99.90
54930;DHT22;40833;53.238;6.576;2022-11-14T17:29:02;7.70;99.90
54930;DHT22;40833;53.238;6.576;2022-11-14T17:31:29;7.70;99.90
54930;DHT22;40833;53.238;6.576;2022-11-14T17:33:56;8.40;99.90
54930;DHT22;40833;53.238;6.576;2022-11-14T17:36:23;7.80;99.90
54930;DHT22;40833;53.238;6.576;2022-11-14T17:38:49;7.60;99.90
54930;DHT22;40833;53.238;6.576;2022-11-14T17:41:15;7.60;99.90
54930;DHT22;40833;53.238;6.576;2022-11-14T17:43:41;7.90;99.90